Ilwaco, Washington
Current Conditions -  °F | °C
As of 2:16 AM on Thursday 27 Nov 2014 (Local Time) from KAST Reporting Station
Light Rain Light Rain  
Wind Chill: 57°   Ceiling: 1000
Heat Index: 57°   Visibility: 4mi
Dew Point: 55°   Wind: 20mph
Humidity: 93%   Direction: 190°S
Pressure: 29.89"   Gusts: 32mph
Location:  46.31°N, 124.04°W
Report Text: KAST 271016Z AUTO 19017G28KT 4SM -RA BR BKN010 OVC016 14/13 A2989 RMK AO2 PK WND 19028/1010 P0004 T01390128
Loading
Personal Weather Stations






























Interactive Weather Map New forecast layout! Learn more

10-Day Weather Forecast

Advertisements
Track Severe Weather on mobile